createdAt,value
2022-08-25T00:00:22.495Z,18.30
2022-08-25T00:03:05.170Z,21.70
2022-08-25T00:05:33.387Z,17.30
2022-08-25T00:08:03.926Z,24.30
2022-08-25T00:10:34.973Z,21.00
2022-08-25T00:13:04.352Z,18.70
2022-08-25T00:15:32.442Z,20.60
2022-08-25T00:18:01.251Z,20.70
2022-08-25T00:20:32.571Z,15.20
2022-08-25T00:23:01.669Z,21.60
2022-08-25T00:25:29.531Z,16.80
2022-08-25T00:27:59.126Z,17.60
2022-08-25T00:30:27.846Z,25.30
2022-08-25T00:32:57.516Z,18.90
2022-08-25T00:35:27.251Z,18.80
2022-08-25T00:37:55.388Z,19.80
2022-08-25T00:40:26.722Z,16.00
2022-08-25T00:42:56.246Z,24.50
2022-08-25T00:45:24.926Z,23.40
2022-08-25T00:47:53.307Z,13.40
2022-08-25T00:50:22.749Z,15.90
2022-08-25T00:52:58.382Z,17.20
2022-08-25T00:55:37.042Z,19.90
2022-08-25T00:58:16.543Z,26.10
2022-08-25T01:00:49.748Z,18.20
2022-08-25T01:03:19.472Z,25.30
2022-08-25T01:05:48.128Z,22.90
2022-08-25T01:08:16.787Z,20.60
2022-08-25T01:10:45.384Z,18.40
2022-08-25T01:13:28.534Z,20.50
2022-08-25T01:15:57.374Z,20.60
2022-08-25T01:18:27.361Z,21.40
2022-08-25T01:20:57.841Z,25.60
2022-08-25T01:23:26.914Z,18.80
2022-08-25T01:26:14.118Z,22.00
2022-08-25T01:29:03.877Z,17.80
2022-08-25T01:31:33.593Z,16.50
2022-08-25T01:34:01.588Z,19.40
2022-08-25T01:36:30.887Z,20.60
2022-08-25T01:38:59.150Z,21.60
2022-08-25T01:41:29.975Z,21.90
2022-08-25T01:43:57.847Z,22.70
2022-08-25T01:46:26.338Z,23.20
2022-08-25T01:48:54.228Z,20.70
2022-08-25T01:51:25.547Z,21.10
2022-08-25T01:53:53.548Z,21.40
2022-08-25T01:56:21.577Z,23.00
2022-08-25T01:58:50.056Z,22.40
2022-08-25T02:01:22.149Z,22.20
2022-08-25T02:03:53.754Z,25.50
2022-08-25T02:06:29.880Z,24.80
2022-08-25T02:09:08.522Z,21.20
2022-08-25T02:11:39.622Z,19.80
2022-08-25T02:14:09.403Z,21.60
2022-08-25T02:16:39.899Z,26.40
2022-08-25T02:19:12.082Z,29.10
2022-08-25T02:21:40.077Z,19.80
2022-08-25T02:24:08.723Z,18.60
2022-08-25T02:26:36.647Z,21.10
2022-08-25T02:29:07.543Z,25.40
2022-08-25T02:31:36.551Z,24.40
2022-08-25T02:34:05.293Z,20.50
2022-08-25T02:36:33.636Z,19.30
2022-08-25T02:39:01.880Z,20.00
2022-08-25T02:41:33.650Z,18.90
2022-08-25T02:44:03.370Z,21.90
2022-08-25T02:46:32.333Z,21.30
2022-08-25T02:49:00.215Z,21.30
2022-08-25T02:51:32.189Z,22.10
2022-08-25T02:54:02.570Z,21.80
2022-08-25T02:56:32.034Z,21.00
2022-08-25T02:59:00.955Z,24.30
2022-08-25T03:01:30.747Z,28.40
2022-08-25T03:03:58.763Z,26.60
2022-08-25T03:06:28.076Z,19.50
2022-08-25T03:08:56.108Z,26.10
2022-08-25T03:11:26.771Z,26.60
2022-08-25T03:13:56.517Z,26.80
2022-08-25T03:16:27.812Z,23.10
2022-08-25T03:18:56.954Z,22.60
2022-08-25T03:21:26.882Z,21.50
2022-08-25T03:23:55.432Z,24.00
2022-08-25T03:26:42.005Z,28.90
2022-08-25T03:29:10.674Z,28.40
2022-08-25T03:31:39.143Z,23.70
2022-08-25T03:34:07.110Z,20.50
2022-08-25T03:36:34.944Z,24.90
2022-08-25T03:39:03.394Z,24.30
2022-08-25T03:41:32.879Z,20.40
2022-08-25T03:44:03.631Z,25.60
2022-08-25T03:46:41.781Z,26.50
2022-08-25T03:49:16.397Z,18.70
2022-08-25T03:51:48.112Z,25.40
2022-08-25T03:54:22.873Z,25.80
2022-08-25T03:56:50.789Z,24.50
2022-08-25T03:59:19.911Z,24.90
2022-08-25T04:01:52.620Z,28.80
2022-08-25T04:04:22.010Z,28.10
2022-08-25T04:06:49.935Z,25.00
2022-08-25T04:09:17.773Z,24.00
2022-08-25T04:11:45.654Z,24.10
2022-08-25T04:14:15.804Z,24.60
2022-08-25T04:16:45.625Z,25.40
2022-08-25T04:19:13.795Z,28.00
2022-08-25T04:21:42.418Z,26.30
2022-08-25T04:24:12.277Z,26.80
2022-08-25T04:26:44.524Z,22.70
2022-08-25T04:31:46.992Z,23.10
2022-08-25T04:34:30.230Z,24.30
2022-08-25T04:37:02.949Z,32.80
2022-08-25T04:39:31.440Z,28.60
2022-08-25T04:42:00.819Z,34.40
2022-08-25T04:44:30.903Z,30.70
2022-08-25T04:46:59.547Z,28.10
2022-08-25T04:49:28.721Z,31.50
2022-08-25T04:51:57.621Z,30.70
2022-08-25T04:54:25.604Z,33.70
2022-08-25T04:56:54.624Z,29.90
2022-08-25T04:59:30.028Z,28.30
2022-08-25T05:04:31.931Z,30.00
2022-08-25T05:07:00.933Z,29.40
2022-08-25T05:09:32.126Z,25.80
2022-08-25T05:12:04.771Z,26.00
2022-08-25T05:14:32.920Z,30.10
2022-08-25T05:17:01.553Z,32.10
2022-08-25T05:19:29.993Z,34.70
2022-08-25T05:21:58.297Z,33.00
2022-08-25T05:24:40.236Z,29.30
2022-08-25T05:27:14.331Z,28.20
2022-08-25T05:29:42.476Z,27.40
2022-08-25T05:32:10.506Z,29.90
2022-08-25T05:34:38.624Z,33.30
2022-08-25T05:37:09.275Z,28.50
2022-08-25T05:39:45.606Z,24.50
2022-08-25T05:42:15.471Z,32.50
2022-08-25T05:44:47.231Z,29.60
2022-08-25T05:47:18.053Z,30.30
2022-08-25T05:49:46.154Z,26.30
2022-08-25T05:52:21.251Z,22.00
2022-08-25T05:54:49.367Z,22.90
2022-08-25T05:57:21.691Z,23.30
2022-08-25T05:59:51.432Z,23.00
2022-08-25T06:02:45.367Z,23.90
2022-08-25T06:05:23.214Z,25.40
2022-08-25T06:08:08.995Z,22.90
2022-08-25T06:10:43.049Z,23.20
2022-08-25T06:13:41.287Z,27.10
2022-08-25T06:16:15.767Z,24.70
2022-08-25T06:21:47.093Z,20.00
2022-08-25T06:24:15.959Z,22.20
2022-08-25T06:26:44.473Z,23.10
2022-08-25T06:29:14.242Z,29.50
2022-08-25T06:31:42.918Z,22.70
2022-08-25T06:34:12.261Z,19.90
2022-08-25T06:36:40.536Z,24.40
2022-08-25T06:39:10.529Z,17.50
2022-08-25T06:41:39.160Z,17.40
2022-08-25T06:44:07.554Z,24.50
2022-08-25T06:46:36.951Z,19.80
2022-08-25T06:49:06.827Z,19.70
2022-08-25T06:51:38.247Z,20.00
2022-08-25T06:54:07.227Z,19.20
2022-08-25T06:56:36.088Z,15.30
2022-08-25T06:59:05.413Z,21.70
2022-08-25T07:01:33.678Z,18.90
2022-08-25T07:04:12.926Z,16.70
2022-08-25T07:06:43.083Z,24.00
2022-08-25T07:09:14.289Z,18.40
2022-08-25T07:11:45.397Z,16.80
2022-08-25T07:14:18.045Z,17.40
2022-08-25T07:16:50.227Z,14.90
2022-08-25T07:19:21.289Z,16.10
2022-08-25T07:21:54.281Z,17.40
2022-08-25T07:24:30.637Z,13.60
2022-08-25T07:27:12.976Z,14.00
2022-08-25T07:29:42.604Z,13.90
2022-08-25T07:32:10.914Z,18.80
2022-08-25T07:34:57.292Z,15.40
2022-08-25T07:37:48.158Z,14.00
2022-08-25T07:45:09.208Z,11.80
2022-08-25T08:02:33.546Z,13.50
2022-08-25T08:05:55.365Z,16.10
2022-08-25T08:08:36.729Z,14.40
2022-08-25T08:12:05.857Z,12.20
2022-08-25T08:14:12.267Z,12.40
2022-08-25T08:16:47.892Z,14.10
2022-08-25T08:19:17.157Z,15.60
2022-08-25T08:21:46.910Z,20.60
2022-08-25T08:24:40.280Z,13.50
2022-08-25T08:27:07.894Z,14.50
2022-08-25T08:29:36.620Z,13.40
2022-08-25T08:32:08.302Z,14.90
2022-08-25T08:34:37.062Z,16.70
2022-08-25T08:37:05.366Z,14.70
2022-08-25T08:39:34.887Z,15.00
2022-08-25T08:43:13.378Z,19.70
2022-08-25T08:45:56.391Z,13.90
2022-08-25T08:49:11.827Z,12.10
2022-08-25T08:51:53.704Z,14.60
2022-08-25T08:54:24.901Z,16.40
2022-08-25T08:57:05.448Z,18.20
2022-08-25T08:59:48.692Z,16.10
2022-08-25T09:02:38.683Z,9.50
2022-08-25T09:05:16.286Z,14.90
2022-08-25T09:07:58.132Z,11.90
2022-08-25T09:10:44.603Z,15.30
2022-08-25T09:14:02.361Z,10.80
2022-08-25T09:16:57.365Z,20.00
2022-08-25T09:19:56.408Z,19.60
2022-08-25T09:22:48.548Z,15.60
2022-08-25T09:25:52.719Z,12.00
2022-08-25T09:28:43.168Z,11.70
2022-08-25T09:31:40.716Z,16.30
2022-08-25T09:39:20.100Z,13.20
2022-08-25T09:41:52.686Z,12.00
2022-08-25T09:44:28.316Z,15.90
2022-08-25T09:47:23.381Z,13.30
2022-08-25T09:50:00.930Z,13.30
2022-08-25T09:52:28.883Z,16.50
2022-08-25T09:55:20.569Z,15.30
2022-08-25T09:58:18.798Z,18.20
2022-08-25T10:01:13.727Z,14.70
2022-08-25T10:04:06.056Z,16.50
2022-08-25T10:09:08.527Z,11.80
2022-08-25T10:11:45.551Z,18.30
2022-08-25T10:14:25.900Z,15.50
2022-08-25T10:17:12.913Z,16.60
2022-08-25T10:19:41.713Z,14.70
2022-08-25T10:22:34.512Z,22.30
2022-08-25T10:25:06.592Z,13.70
2022-08-25T10:27:52.965Z,22.40
2022-08-25T10:30:40.797Z,20.50
2022-08-25T10:33:22.646Z,16.90
2022-08-25T10:36:03.558Z,18.00
2022-08-25T10:38:45.064Z,19.50
2022-08-25T10:41:44.495Z,18.50
2022-08-25T10:44:59.880Z,14.00
2022-08-25T10:47:51.203Z,18.20
2022-08-25T10:50:40.504Z,18.20
2022-08-25T10:53:25.722Z,18.10
2022-08-25T10:56:21.789Z,16.40
2022-08-25T10:59:04.426Z,15.70
2022-08-25T11:02:08.971Z,15.50
2022-08-25T11:05:03.653Z,16.10
2022-08-25T11:07:38.734Z,15.00
2022-08-25T11:10:17.570Z,16.80
2022-08-25T11:12:55.713Z,15.40
2022-08-25T11:15:54.756Z,16.80
2022-08-25T11:18:32.203Z,18.20
2022-08-25T11:21:18.455Z,14.90
2022-08-25T11:24:14.224Z,17.60
2022-08-25T11:29:22.196Z,21.10
2022-08-25T11:31:53.968Z,18.40
2022-08-25T11:34:23.191Z,19.60
2022-08-25T11:36:57.896Z,20.00
2022-08-25T11:39:58.854Z,17.90
2022-08-25T11:42:45.710Z,21.20
2022-08-25T11:46:13.857Z,13.00
2022-08-25T11:49:17.418Z,13.90
2022-08-25T11:51:51.661Z,18.30
2022-08-25T11:54:36.447Z,21.40
2022-08-25T11:57:22.332Z,20.40
2022-08-25T11:59:50.163Z,20.10
2022-08-25T12:02:47.644Z,16.40
2022-08-25T12:05:24.796Z,19.10
2022-08-25T12:08:13.571Z,19.90
2022-08-25T12:11:15.324Z,18.80
2022-08-25T12:13:51.824Z,19.00
2022-08-25T12:16:36.942Z,16.40
2022-08-25T12:19:29.937Z,18.40
2022-08-25T12:22:04.055Z,20.00
2022-08-25T12:24:47.677Z,18.90
2022-08-25T12:27:56.002Z,25.30
2022-08-25T12:30:47.489Z,23.00
2022-08-25T12:33:55.927Z,15.10
2022-08-25T12:36:35.795Z,21.20
2022-08-25T12:39:24.709Z,21.90
2022-08-25T12:42:03.945Z,18.50
2022-08-25T12:44:47.749Z,20.50
2022-08-25T12:47:35.436Z,21.70
2022-08-25T12:50:34.641Z,22.10
2022-08-25T12:53:28.876Z,22.70
2022-08-25T12:56:04.681Z,20.40
2022-08-25T12:59:04.048Z,18.60
2022-08-25T13:02:18.186Z,17.90
2022-08-25T13:05:33.719Z,25.80
2022-08-25T13:08:33.812Z,20.50
2022-08-25T13:11:14.814Z,20.40
2022-08-25T13:14:19.865Z,24.90
2022-08-25T13:16:57.582Z,17.40
2022-08-25T13:19:27.395Z,20.70
2022-08-25T13:22:16.181Z,21.60
2022-08-25T13:27:25.391Z,21.30
2022-08-25T13:29:58.341Z,17.30
2022-08-25T13:32:35.734Z,19.10
2022-08-25T13:35:22.203Z,21.70
2022-08-25T13:37:54.256Z,27.70
2022-08-25T13:40:29.378Z,23.30
2022-08-25T13:43:11.106Z,24.80
2022-08-25T13:45:46.637Z,29.60
2022-08-25T13:48:38.074Z,27.30
2022-08-25T13:51:31.493Z,24.30
2022-08-25T13:54:05.250Z,22.10
2022-08-25T13:56:42.081Z,24.00
2022-08-25T13:59:39.214Z,19.50
2022-08-25T14:02:19.435Z,25.80
2022-08-25T14:04:51.482Z,26.80
2022-08-25T14:07:21.105Z,23.40
2022-08-25T14:10:30.050Z,34.90
2022-08-25T14:13:35.103Z,25.60
2022-08-25T14:17:02.651Z,21.30
2022-08-25T14:19:54.125Z,21.40
2022-08-25T14:22:33.152Z,19.20
2022-08-25T14:29:41.710Z,28.90
2022-08-25T14:32:29.971Z,20.40
2022-08-25T14:35:27.522Z,23.60
2022-08-25T14:38:11.589Z,22.00
2022-08-25T14:40:43.484Z,17.20
2022-08-25T14:44:01.774Z,20.40
2022-08-25T14:46:38.555Z,22.70
2022-08-25T14:49:12.091Z,20.40
2022-08-25T14:51:52.488Z,17.80
2022-08-25T14:54:24.067Z,18.00
2022-08-25T14:56:52.320Z,21.30
2022-08-25T14:59:20.670Z,21.90
2022-08-25T15:01:50.176Z,25.80
2022-08-25T15:04:23.487Z,25.50
2022-08-25T15:06:56.505Z,20.40
2022-08-25T15:09:25.163Z,20.70
2022-08-25T15:12:03.594Z,21.40
2022-08-25T15:14:33.339Z,24.60
2022-08-25T15:17:02.646Z,24.00
2022-08-25T15:19:31.232Z,20.90
2022-08-25T15:25:10.327Z,17.90
2022-08-25T15:27:38.472Z,19.40
2022-08-25T15:30:08.217Z,24.60
2022-08-25T15:32:40.903Z,19.50
2022-08-25T15:35:17.627Z,23.40
2022-08-25T15:37:48.293Z,20.00
2022-08-25T15:40:16.508Z,21.40
2022-08-25T15:42:46.084Z,26.50
2022-08-25T15:45:15.393Z,18.80
2022-08-25T15:47:45.281Z,21.10
2022-08-25T15:50:25.410Z,21.60
2022-08-25T15:52:58.239Z,22.30
2022-08-25T15:57:55.511Z,19.10
2022-08-25T16:00:24.395Z,26.40
2022-08-25T16:02:52.642Z,23.20
2022-08-25T16:05:25.625Z,20.70
2022-08-25T16:07:54.369Z,25.40
2022-08-25T16:10:24.619Z,21.00
2022-08-25T16:12:53.598Z,15.80
2022-08-25T16:15:23.999Z,31.00
2022-08-25T16:17:59.154Z,18.90
2022-08-25T16:20:29.184Z,26.00
2022-08-25T16:22:58.262Z,22.70
2022-08-25T16:25:27.377Z,22.10
2022-08-25T16:27:55.557Z,18.20
2022-08-25T16:30:25.446Z,25.10
2022-08-25T16:32:56.893Z,23.10
2022-08-25T16:35:28.282Z,23.20
2022-08-25T16:37:57.309Z,20.70
2022-08-25T16:40:30.583Z,23.80
2022-08-25T16:42:59.719Z,21.20
2022-08-25T16:45:30.641Z,16.50
2022-08-25T16:47:58.631Z,28.20
2022-08-25T16:50:26.640Z,25.30
2022-08-25T16:53:16.113Z,20.30
2022-08-25T16:55:45.815Z,19.20
2022-08-25T16:58:13.733Z,22.50
2022-08-25T17:00:43.991Z,24.90
2022-08-25T17:03:13.270Z,20.00
2022-08-25T17:05:43.349Z,25.10
2022-08-25T17:08:30.667Z,18.00
2022-08-25T17:11:15.574Z,27.70
2022-08-25T17:13:47.741Z,21.90
2022-08-25T17:16:21.142Z,19.50
2022-08-25T17:18:49.207Z,25.60
2022-08-25T17:21:24.237Z,26.00
2022-08-25T17:23:58.083Z,20.60
2022-08-25T17:26:28.830Z,25.10
2022-08-25T17:28:59.734Z,19.00
2022-08-25T17:31:29.938Z,25.40
2022-08-25T17:33:59.592Z,21.00
2022-08-25T17:36:28.201Z,22.60
2022-08-25T17:38:59.248Z,21.50
2022-08-25T17:41:27.265Z,24.30
2022-08-25T17:43:55.238Z,26.00
2022-08-25T17:46:24.491Z,34.70
2022-08-25T17:48:53.362Z,31.60
2022-08-25T17:51:23.138Z,27.90
2022-08-25T17:53:52.867Z,28.90
2022-08-25T17:56:24.283Z,22.40
2022-08-25T17:58:59.309Z,22.80
2022-08-25T18:01:33.775Z,27.50
2022-08-25T18:04:01.831Z,23.00
2022-08-25T18:06:31.352Z,32.10
2022-08-25T18:09:09.876Z,23.40
2022-08-25T18:11:37.921Z,23.20
2022-08-25T18:14:34.865Z,26.90
2022-08-25T18:17:04.000Z,22.60
2022-08-25T18:19:41.489Z,20.20
2022-08-25T18:22:10.813Z,24.10
2022-08-25T18:24:40.221Z,32.50
2022-08-25T18:27:08.628Z,40.30
2022-08-25T18:29:44.173Z,35.50
2022-08-25T18:32:12.436Z,31.50
2022-08-25T18:34:40.582Z,30.40
2022-08-25T18:37:27.739Z,33.80
2022-08-25T18:40:14.377Z,33.60
2022-08-25T18:42:42.900Z,32.90
2022-08-25T18:45:12.325Z,29.10
2022-08-25T18:47:41.000Z,27.00
2022-08-25T18:50:09.716Z,26.40
2022-08-25T18:52:38.713Z,30.70
2022-08-25T18:55:07.990Z,26.60
2022-08-25T18:57:38.874Z,27.10
2022-08-25T19:00:13.085Z,37.00
2022-08-25T19:02:41.285Z,31.80
2022-08-25T19:05:17.801Z,28.90
2022-08-25T19:07:45.861Z,33.90
2022-08-25T19:10:23.961Z,37.80
2022-08-25T19:12:57.071Z,36.10
2022-08-25T19:15:27.278Z,33.80
2022-08-25T19:17:59.043Z,31.40
2022-08-25T19:20:30.570Z,45.10
2022-08-25T19:22:59.772Z,45.70
2022-08-25T19:25:33.241Z,38.70
2022-08-25T19:28:04.289Z,37.00
2022-08-25T19:30:34.644Z,34.20
2022-08-25T19:33:05.175Z,33.70
2022-08-25T19:35:49.476Z,31.60
2022-08-25T19:38:49.289Z,33.90
2022-08-25T19:41:22.357Z,37.60
2022-08-25T19:43:56.262Z,33.60
2022-08-25T19:46:33.353Z,31.20
2022-08-25T19:49:13.358Z,37.50
2022-08-25T19:51:47.254Z,28.70
2022-08-25T19:54:29.547Z,29.30
2022-08-25T19:56:59.522Z,30.50
2022-08-25T19:59:40.775Z,31.00
2022-08-25T20:02:25.268Z,23.00
2022-08-25T20:05:00.160Z,27.90
2022-08-25T20:07:31.082Z,24.70
2022-08-25T20:10:00.330Z,30.10
2022-08-25T20:12:29.212Z,30.40
2022-08-25T20:14:58.241Z,29.10
2022-08-25T20:17:31.606Z,25.10
2022-08-25T20:20:05.273Z,34.40
2022-08-25T20:22:35.806Z,31.20
2022-08-25T20:25:22.934Z,25.20
2022-08-25T20:27:54.911Z,29.50
2022-08-25T20:30:27.398Z,30.50
2022-08-25T20:32:58.248Z,25.30
2022-08-25T20:35:33.560Z,27.70
2022-08-25T20:38:02.017Z,31.00
2022-08-25T20:40:33.953Z,32.00
2022-08-25T20:43:10.439Z,26.70
2022-08-25T20:45:40.066Z,26.30
2022-08-25T20:48:11.377Z,25.60
2022-08-25T20:50:39.912Z,24.20
2022-08-25T20:53:10.174Z,23.30
2022-08-25T20:55:45.367Z,32.70
2022-08-25T20:58:32.141Z,24.30
2022-08-25T21:01:17.531Z,22.70
2022-08-25T21:03:51.344Z,28.50
2022-08-25T21:06:19.254Z,26.10
2022-08-25T21:09:01.742Z,29.90
2022-08-25T21:11:49.166Z,25.70
2022-08-25T21:14:26.755Z,27.30
2022-08-25T21:16:56.339Z,30.40
2022-08-25T21:19:36.439Z,28.20
2022-08-25T21:22:10.811Z,26.50
2022-08-25T21:24:41.021Z,25.60
2022-08-25T21:27:23.913Z,23.10
2022-08-25T21:29:59.508Z,32.00
2022-08-25T21:32:27.821Z,34.40
2022-08-25T21:34:56.454Z,24.30
2022-08-25T21:37:32.329Z,25.90
2022-08-25T21:40:00.794Z,30.00
2022-08-25T21:42:28.890Z,31.70
2022-08-25T21:48:04.087Z,27.20
2022-08-25T21:50:41.314Z,26.60
2022-08-25T21:53:10.430Z,20.20
2022-08-25T21:55:42.017Z,25.30
2022-08-25T21:58:10.266Z,21.80
2022-08-25T22:00:41.824Z,22.10
2022-08-25T22:03:09.834Z,16.70
2022-08-25T22:05:40.570Z,27.60
2022-08-25T22:08:16.009Z,27.90
2022-08-25T22:10:45.034Z,27.70
2022-08-25T22:13:16.475Z,28.50
2022-08-25T22:15:55.541Z,26.30
2022-08-25T22:18:23.608Z,24.80
2022-08-25T22:20:51.882Z,21.90
2022-08-25T22:23:21.971Z,21.70
2022-08-25T22:25:56.122Z,23.90
2022-08-25T22:28:27.167Z,24.90
2022-08-25T22:31:01.787Z,25.90
2022-08-25T22:33:30.515Z,32.80
2022-08-25T22:35:59.857Z,25.80
2022-08-25T22:38:27.908Z,26.00
2022-08-25T22:41:02.983Z,28.00
2022-08-25T22:43:31.528Z,28.00
2022-08-25T22:46:05.245Z,28.50
2022-08-25T22:48:34.182Z,29.20
2022-08-25T22:51:11.073Z,24.50
2022-08-25T22:53:43.141Z,26.60
2022-08-25T22:56:13.305Z,25.10
2022-08-25T22:58:51.873Z,28.70
2022-08-25T23:01:22.511Z,25.40
2022-08-25T23:03:50.820Z,29.80
2022-08-25T23:06:25.303Z,23.50
2022-08-25T23:08:55.014Z,25.60
2022-08-25T23:11:24.620Z,28.90
2022-08-25T23:13:59.431Z,27.30
2022-08-25T23:16:29.063Z,26.70
2022-08-25T23:18:57.371Z,30.80
2022-08-25T23:21:44.420Z,28.30
2022-08-25T23:24:14.480Z,27.90
2022-08-25T23:27:00.792Z,28.80
2022-08-25T23:29:30.323Z,32.20
2022-08-25T23:32:00.686Z,24.80
2022-08-25T23:34:29.130Z,26.30
2022-08-25T23:36:57.165Z,29.50
2022-08-25T23:39:45.835Z,30.80
2022-08-25T23:42:14.147Z,25.50
2022-08-25T23:44:43.531Z,24.80
2022-08-25T23:47:12.298Z,20.00
2022-08-25T23:49:40.471Z,25.20
2022-08-25T23:52:08.448Z,26.40
2022-08-25T23:54:36.494Z,33.00
2022-08-25T23:57:06.891Z,24.40
2022-08-25T23:59:35.249Z,32.20
